Saturday, June 25, 2016
14:06 UTC
  |  Log In   |  Register Free
Airport Search:

Modesto City-Co-Harry Sham Fld Airport
(KMOD)

FAA data valid effective May 26 2016 - Jul 21 2016 (unless otherwise noted).

 
 
 
 
 
 
 
 
 
 
 
 
 
 
Current Aviation Weather for KMOD

Weather Summary


The most recent METAR observation for MOD was updated at: 12:53 UTC
METAR for KMOD is not available. Closest METAR is for KSCK
KMOD  (most recent observation was updatred at 25:13 UTC)
251353Z 24003KT 10SM CLR 19/11 A2993 RMK AO2 SLP134 T01940111

KSCK  (21.0 nm SE)   (most recent observation was updated at 25:13 UTC)
251355Z 00000KT 10SM CLR 17/11 A2994 RMK AO2 SLP137 T01720106

KMER  (23.6 nm NW)   (most recent observation was updated at 25:13 UTC)
251345Z 32005KT 10SM SKC 20/11 A2994

TAF for KMOD is not available.
KSCK  (21.0 nm SE)   (most recent observation was updatred at 25:11 UTC)
251123Z 2512/2612 VRB05KT P6SM SKC FM251500 31008KT P6SM SKC FM260900 32004KT P6SM SKC


KMER  (23.6 nm NW)   (most recent observation was updatred at 25:11 UTC)
251136Z 2512/2612 32004KT P6SM SKC FM251600 32012KT P6SM SKC FM260600 32004KT P6SM SKC


KMCE  (29.3 nm NW)   (most recent observation was updatred at 25:11 UTC)
251136Z 2512/2612 32004KT P6SM SKC FM251600 32012KT P6SM SKC FM260500 32004KT P6SM SKC
GlobalAir.com is loading additional information.
 Current Weather at MOD
65.0 F° (18.3 C°)

North winds at 0.0 mph
Pressure:
29.92 in
Humidity:
59%
Wind:
North at 0.0 mph
Dew Point:
50.0 F° (10.0 C°)
Visibility:
8.00 mi
MOD NOAA Radar




Find All Airport Services Find A Hotel Find A Rental Car Find A Golf Course Find A Restaurant $100 Hamburger



Airport Weather Forecast for KMOD

Translated METAR for KMOD (1353 UTC)
METAR:
KMOD 251353Z 24003KT 10SM CLR 19/11 A2993 RMK AO2 SLP134 T01940111
Conditions at:
KMOD (Modesto City-Co-Harry Sham Fld, CA) observed 1353 UTC 25 June 2016
Temperature:
19°C (66.2°F)
Dewpoint:
11°C (51.8°F) [RH = 59.8]
Pressure:
29.93 inches Hg (1013.5 mb)
pressure at sea level is 134 in Hg
Winds:
from the WSW (240 degrees) at 3.5 mph (3 knots: 1.5 m/s)
Visibility:
10 mile(s)
Ceiling:
at least 12,000 feet AGL
Clouds:
Clear below 12,000 feet AGL
Remarks:
site is automated and HAS a precipitation sensor

Translated TAF for KSCK (Stockton Metropolitan, CA) (1123 UTC)
TAF text:
KSCK 251123Z 2512/2612 VRB05KT P6SM SKC
Forecast period:
Saturday Jun 25 2016 12:00 UTC - Sunday Jun 26 2016 12:00 UTC
Forecast type:
FROM: standard forecast or significant change
Winds:
variable wind direction at 5.8 mph (5 knots: 2.6 m/s)
Visibility:
6 or more mile(s) (9.7+ km)
Ceiling:
at least 12,000 feet AGL
Clouds:
Clear Skies
Weather:
no significant weather observed at this time
TAF text:
FM251500 31008KT P6SM SKC
Forecast period:
Saturday Jun 25 2016 15:00 UTC - Sunday Jun 26 2016 09:00 UTC
Forecast type:
FROM: standard forecast or significant change
Winds:
from the NW (310 degrees) at 9.2 mph (8 knots: 4.1 m/s)
Visibility:
6 or more mile(s) (9.7+ km)
Ceiling:
at least 12,000 feet AGL
Clouds:
Clear Skies
Weather:
no significant weather observed at this time
TAF text:
FM260900 32004KT P6SM SKC
Forecast period:
Sunday Jun 26 2016 09:00 UTC - Sunday Jun 26 2016 12:00 UTC
Forecast type:
FROM: standard forecast or significant change
Winds:
from the NW (320 degrees) at 4.6 mph (4 knots: 2.1 m/s)
Visibility:
6 or more mile(s) (9.7+ km)
Ceiling:
at least 12,000 feet AGL
Clouds:
Clear Skies
Weather:
no significant weather observed at this time
FBO's on the Field
FBO Company Facility Photos Services Transportation Aviation Fuel Prices: Prices include tax
Catering Weather Repair Courtesy Rental Type 100LL JetA JetA+ MOGAS 8087
 
Sky Trek Aviation

This FBO has not yet been rated
FS:Avfuel
Last Updated: Jun-16
Login to update fuel prices
SS:
Contact Sky Trek AviationMore FBO Information
 
Add another FBO Facility Photos Catering Weather Repair Courtesy Rental Type 100LL JetA JetA+ MOGAS 8087
Services Transportation Aviation Fuel Prices: Prices include tax


model-print
model-print
model-print
model-print